Time;durP1;ratioP1;P1;durP2;ratioP2;P2;SDS_P1;SDS_P2;PMS_P1;PMS_P2;Temp;Humidity;BMP_temperature;BMP_pressure;BME280_temperature;BME280_humidity;BME280_pressure;Samples;Min_cycle;Max_cycle;Signal;HPM_P1;HPM_P2
2023/04/12 00:02:21;;;;;;;2.00;0.53;;;;;;;25.48;34.35;98866.80;1866956;75;28078;-44
2023/04/12 00:05:10;;;;;;;0.45;0.45;;;;;;;25.50;34.33;98864.61;1858157;75;28193;-43
2023/04/12 00:08:01;;;;;;;0.37;0.37;;;;;;;25.48;34.38;98855.80;1882485;75;28119;-43
2023/04/12 00:10:48;;;;;;;0.35;0.35;;;;;;;25.51;34.35;98857.19;1890814;75;28145;-43
2023/04/12 00:13:37;;;;;;;0.40;0.30;;;;;;;25.48;34.34;98850.84;1874528;74;28047;-42
2023/04/12 00:16:25;;;;;;;0.37;0.37;;;;;;;25.47;34.40;98847.27;1870620;74;28233;-42
2023/04/12 00:19:15;;;;;;;1.25;0.55;;;;;;;25.48;34.42;98843.42;1887305;75;28192;-45
2023/04/12 00:22:03;;;;;;;0.50;0.50;;;;;;;25.45;34.39;98836.25;1881789;75;28130;-43
2023/04/12 00:24:52;;;;;;;0.40;0.40;;;;;;;25.47;34.40;98826.63;1895504;74;28097;-43
2023/04/12 00:27:40;;;;;;;0.53;0.47;;;;;;;25.46;34.40;98823.62;1882215;75;28125;-43
2023/04/12 00:30:29;;;;;;;0.35;0.35;;;;;;;25.46;34.47;98820.05;1882330;74;28189;-44
2023/04/12 00:33:18;;;;;;;0.57;0.45;;;;;;;25.47;34.45;98817.02;1897890;75;28132;-43
2023/04/12 00:36:07;;;;;;;0.37;0.37;;;;;;;25.47;34.41;98813.42;1896373;74;28063;-43
2023/04/12 00:38:55;;;;;;;0.98;0.42;;;;;;;25.48;34.39;98817.30;1889706;74;28177;-43
2023/04/12 00:41:44;;;;;;;0.50;0.50;;;;;;;25.48;34.43;98821.43;1870533;75;28235;-43
2023/04/12 00:44:34;;;;;;;0.35;0.35;;;;;;;25.48;34.44;98820.59;1878055;75;28100;-42
2023/04/12 00:47:23;;;;;;;0.80;0.53;;;;;;;25.45;34.51;98820.58;1871837;75;28278;-42
2023/04/12 00:50:13;;;;;;;0.40;0.40;;;;;;;25.46;34.46;98814.00;1872320;75;28196;-42
2023/04/12 00:53:03;;;;;;;0.60;0.47;;;;;;;25.47;34.50;98807.93;1889899;74;28134;-43
2023/04/12 00:55:53;;;;;;;0.40;0.40;;;;;;;25.47;34.50;98807.39;1908765;74;28191;-44
2023/04/12 00:58:43;;;;;;;0.30;0.30;;;;;;;25.46;34.59;98803.55;1888295;75;28068;-43
2023/04/12 01:01:31;;;;;;;0.50;0.50;;;;;;;25.44;34.54;98801.05;1865250;75;28254;-43
2023/04/12 01:04:21;;;;;;;0.47;0.47;;;;;;;25.46;34.56;98804.37;1906590;74;28120;-43
2023/04/12 01:07:32;;;;;;;0.30;0.30;;;;;;;25.43;34.60;98798.00;1909212;74;28147;-44
2023/04/12 01:10:40;;;;;;;0.40;0.40;;;;;;;25.45;34.61;98793.08;1899601;74;28144;-46
2023/04/12 01:13:32;;;;;;;1.37;0.40;;;;;;;25.40;34.70;98786.16;1867202;75;28614;-43
2023/04/12 01:16:39;;;;;;;0.78;0.40;;;;;;;25.41;34.75;98776.83;1885319;75;28133;-42
2023/04/12 01:20:08;;;;;;;2.92;0.40;;;;;;;25.41;34.72;98773.50;1905564;74;28051;-42
2023/04/12 01:23:16;;;;;;;0.72;0.40;;;;;;;25.37;34.79;98767.44;1892597;74;28152;-45
2023/04/12 01:26:25;;;;;;;0.37;0.37;;;;;;;25.36;34.84;98762.52;1902645;74;28101;-43
2023/04/12 01:29:20;;;;;;;0.20;0.20;;;;;;;25.35;34.91;98763.60;1903389;74;28097;-43
2023/04/12 01:32:11;;;;;;;0.20;0.20;;;;;;;25.35;34.88;98760.02;1905226;74;28143;-45
2023/04/12 01:35:02;;;;;;;0.57;0.57;;;;;;;25.38;34.82;98750.70;1902501;74;28140;-42
2023/04/12 01:37:51;;;;;;;0.40;0.40;;;;;;;25.38;34.82;98747.11;1903955;74;28327;-44
2023/04/12 01:40:41;;;;;;;0.40;0.40;;;;;;;25.38;34.83;98729.24;1879583;75;28084;-43
2023/04/12 01:43:29;;;;;;;0.37;0.37;;;;;;;25.41;34.77;98727.33;1904868;74;28129;-44
2023/04/12 01:46:21;;;;;;;0.30;0.30;;;;;;;25.38;34.86;98720.45;1903999;74;28212;-44
2023/04/12 01:49:11;;;;;;;0.50;0.50;;;;;;;25.42;34.79;98715.22;1871716;75;28111;-43
2023/04/12 01:52:14;;;;;;;0.40;0.40;;;;;;;25.42;34.82;98709.72;1909219;74;28188;-45
2023/04/12 01:55:05;;;;;;;1.20;0.42;;;;;;;25.40;34.81;98698.17;1906905;74;28111;-45
2023/04/12 01:57:54;;;;;;;0.40;0.40;;;;;;;25.40;34.86;98695.42;1881575;76;28245;-42
2023/04/12 02:00:44;;;;;;;0.25;0.25;;;;;;;25.40;34.89;98692.67;1911229;74;28055;-45
2023/04/12 02:03:34;;;;;;;0.28;0.28;;;;;;;25.43;34.83;98688.55;1876193;75;28207;-46
2023/04/12 02:06:23;;;;;;;0.40;0.40;;;;;;;25.43;34.86;98683.06;1890331;74;28329;-43
2023/04/12 02:09:13;;;;;;;0.30;0.30;;;;;;;25.42;34.84;98682.22;1896640;74;28112;-42
2023/04/12 02:12:01;;;;;;;0.45;0.40;;;;;;;25.43;34.80;98672.89;1906341;74;27813;-43
2023/04/12 02:14:51;;;;;;;0.30;0.30;;;;;;;25.41;34.80;98664.89;1893371;74;28109;-42
2023/04/12 02:17:39;;;;;;;0.30;0.30;;;;;;;25.41;34.86;98655.27;1893484;74;28128;-43
2023/04/12 02:20:29;;;;;;;0.30;0.30;;;;;;;25.44;34.81;98652.56;1912896;74;28147;-42
2023/04/12 02:23:17;;;;;;;0.60;0.60;;;;;;;25.43;34.84;98646.77;1917084;74;28076;-43
2023/04/12 02:26:07;;;;;;;0.50;0.50;;;;;;;25.44;34.82;98641.56;1901251;74;28195;-44
2023/04/12 02:28:55;;;;;;;0.33;0.33;;;;;;;25.41;34.87;98640.15;1910939;74;28082;-42
2023/04/12 02:31:45;;;;;;;0.42;0.40;;;;;;;25.44;34.84;98630.56;1874620;75;28063;-42
2023/04/12 02:34:35;;;;;;;0.40;0.40;;;;;;;25.41;34.85;98624.22;1883473;74;28183;-43
2023/04/12 02:37:28;;;;;;;1.30;0.40;;;;;;;25.42;34.85;98627.23;1884754;75;28076;-45
2023/04/12 02:40:16;;;;;;;0.30;0.30;;;;;;;25.41;34.89;98620.10;1903248;74;28433;-43
2023/04/12 02:43:05;;;;;;;0.30;0.30;;;;;;;25.39;34.90;98618.98;1914236;74;28098;-44
2023/04/12 02:45:54;;;;;;;0.42;0.42;;;;;;;25.40;34.88;98616.52;1896785;74;28226;-44
2023/04/12 02:48:43;;;;;;;0.40;0.40;;;;;;;25.44;34.80;98617.39;1914641;74;28057;-43
2023/04/12 02:51:31;;;;;;;0.60;0.60;;;;;;;25.42;34.86;98616.23;1902555;74;28727;-43
2023/04/12 02:54:20;;;;;;;0.33;0.33;;;;;;;25.41;34.89;98613.23;1905564;74;28258;-43
2023/04/12 02:57:14;;;;;;;0.60;0.30;;;;;;;25.39;34.88;98605.81;1899342;74;28123;-42
2023/04/12 03:00:10;;;;;;;1.00;0.50;;;;;;;25.38;34.90;98605.52;1901517;74;28161;-43
2023/04/12 03:03:07;;;;;;;0.30;0.20;;;;;;;25.39;34.88;98604.44;1883277;75;28052;-45
2023/04/12 03:05:57;;;;;;;0.47;0.47;;;;;;;25.37;34.88;98601.94;1878919;74;28115;-44
2023/04/12 03:08:45;;;;;;;0.40;0.40;;;;;;;25.36;34.90;98597.55;1901620;75;28167;-45
2023/04/12 03:11:34;;;;;;;0.40;0.40;;;;;;;25.38;34.88;98604.14;1881587;75;38516;-45
2023/04/12 03:14:23;;;;;;;0.30;0.30;;;;;;;25.40;34.84;98588.20;1889483;74;28162;-42
2023/04/12 03:17:12;;;;;;;0.30;0.30;;;;;;;25.37;34.89;98584.06;1848647;75;28058;-42
2023/04/12 03:20:09;;;;;;;0.25;0.25;;;;;;;25.38;34.89;98584.36;1900719;74;28083;-43
2023/04/12 03:22:59;;;;;;;0.20;0.20;;;;;;;25.37;34.87;98579.94;1900772;75;28075;-44
2023/04/12 03:25:48;;;;;;;0.40;0.40;;;;;;;25.36;34.93;98578.85;1882531;75;28564;-43
2023/04/12 03:28:40;;;;;;;0.50;0.50;;;;;;;25.37;34.88;98570.86;1893218;74;28213;-44
2023/04/12 03:31:28;;;;;;;0.50;0.50;;;;;;;25.39;34.87;98568.69;1873575;74;28250;-44
2023/04/12 03:34:17;;;;;;;0.47;0.47;;;;;;;25.38;34.91;98561.53;1886432;74;28169;-43
2023/04/12 03:37:07;;;;;;;0.57;0.57;;;;;;;25.40;34.85;98562.08;1881861;74;28241;-42
2023/04/12 03:40:00;;;;;;;0.30;0.30;;;;;;;25.36;34.91;98554.94;1901311;74;28147;-42
2023/04/12 03:42:48;;;;;;;0.50;0.50;;;;;;;25.39;34.95;98546.70;1901394;74;28220;-44
2023/04/12 03:45:37;;;;;;;0.33;0.33;;;;;;;25.37;34.91;98544.20;1863495;74;27805;-44
2023/04/12 03:48:26;;;;;;;0.45;0.45;;;;;;;25.37;34.98;98543.38;1824708;77;28338;-44
2023/04/12 03:51:15;;;;;;;0.28;0.28;;;;;;;25.34;34.98;98557.11;1896161;75;28059;-43
2023/04/12 03:54:05;;;;;;;0.40;0.40;;;;;;;25.36;34.97;98541.73;1879660;74;28169;-42
2023/04/12 03:56:55;;;;;;;0.30;0.30;;;;;;;25.35;34.97;98538.70;1873779;75;28130;-43
2023/04/12 03:59:45;;;;;;;0.30;0.30;;;;;;;25.34;35.01;98537.87;1882464;75;28111;-45
2023/04/12 04:02:34;;;;;;;0.30;0.30;;;;;;;25.38;34.95;98532.12;1875741;75;28205;-43
2023/04/12 04:05:24;;;;;;;0.40;0.40;;;;;;;25.34;34.94;98534.32;1890792;74;28122;-43
2023/04/12 04:08:13;;;;;;;0.40;0.40;;;;;;;25.30;35.03;98523.58;1886403;74;28204;-42
2023/04/12 04:11:13;;;;;;;0.40;0.40;;;;;;;25.34;34.98;98531.00;1883084;74;28107;-43
2023/04/12 04:14:03;;;;;;;0.40;0.40;;;;;;;25.34;34.98;98537.87;1904706;74;28108;-44
2023/04/12 04:16:52;;;;;;;0.50;0.40;;;;;;;25.37;34.97;98529.08;1901081;75;28248;-43
2023/04/12 04:19:41;;;;;;;0.40;0.40;;;;;;;25.34;34.97;98525.50;1903373;74;28051;-44
2023/04/12 04:22:31;;;;;;;0.35;0.35;;;;;;;25.33;35.02;98520.29;1882367;74;31017;-43
2023/04/12 04:25:28;;;;;;;0.40;0.40;;;;;;;25.36;35.01;98522.50;1900864;74;28180;-42
2023/04/12 04:28:14;;;;;;;0.20;0.20;;;;;;;25.38;34.95;98526.62;1873250;75;27798;-42
2023/04/12 04:31:05;;;;;;;0.42;0.42;;;;;;;25.35;34.95;98524.41;1887778;75;28092;-43
2023/04/12 04:33:54;;;;;;;0.30;0.30;;;;;;;25.35;35.00;98533.20;1901245;75;28160;-43
2023/04/12 04:36:44;;;;;;;0.20;0.20;;;;;;;25.35;34.97;98531.28;1893245;74;28172;-49
2023/04/12 04:39:33;;;;;;;0.30;0.30;;;;;;;25.36;34.98;98530.74;1884990;74;28226;-43
2023/04/12 04:42:23;;;;;;;0.60;0.28;;;;;;;25.34;34.99;98520.58;1901354;74;28654;-42
2023/04/12 04:45:17;;;;;;;0.40;0.40;;;;;;;25.32;35.00;98511.78;1881477;75;28180;-42
2023/04/12 04:48:06;;;;;;;0.45;0.30;;;;;;;25.32;35.03;98518.66;1879297;74;28048;-43
2023/04/12 04:50:55;;;;;;;0.40;0.40;;;;;;;25.30;35.04;98523.03;1901653;74;28075;-43
2023/04/12 04:53:44;;;;;;;0.37;0.37;;;;;;;25.34;35.00;98517.83;1882541;74;28137;-42
2023/04/12 04:56:33;;;;;;;0.33;0.33;;;;;;;25.34;35.05;98520.00;1868712;74;28164;-43
2023/04/12 04:59:22;;;;;;;0.30;0.30;;;;;;;25.33;35.01;98516.16;1900172;74;28123;-44
2023/04/12 05:02:12;;;;;;;0.40;0.40;;;;;;;25.35;35.01;98515.34;1900342;74;28080;-44
2023/04/12 05:05:01;;;;;;;0.30;0.30;;;;;;;25.35;35.00;98516.16;1882996;75;28232;-43
2023/04/12 05:07:50;;;;;;;0.40;0.40;;;;;;;25.35;35.07;98516.16;1882498;74;28115;-44
2023/04/12 05:10:38;;;;;;;0.35;0.35;;;;;;;25.33;34.97;98514.25;1901280;74;28084;-45
2023/04/12 05:13:27;;;;;;;0.30;0.30;;;;;;;25.29;35.09;98531.03;1899481;74;28052;-46
2023/04/12 05:16:15;;;;;;;0.33;0.33;;;;;;;25.31;35.09;98524.70;1866882;75;28137;-44
2023/04/12 05:19:04;;;;;;;0.30;0.30;;;;;;;25.30;35.09;98520.83;1874119;75;28188;-43
2023/04/12 05:21:52;;;;;;;0.37;0.37;;;;;;;25.31;35.04;98519.20;1892312;75;28334;-44
2023/04/12 05:24:41;;;;;;;0.30;0.30;;;;;;;25.27;35.10;98511.23;1880548;75;28200;-42
2023/04/12 05:27:30;;;;;;;0.42;0.42;;;;;;;25.40;34.98;98523.58;1884570;74;28110;-43
2023/04/12 05:30:19;;;;;;;0.72;0.72;;;;;;;25.43;34.39;98516.16;1899963;74;28263;-43
2023/04/12 05:33:09;;;;;;;0.80;0.80;;;;;;;25.29;33.30;98497.20;1895324;74;28155;-44
2023/04/12 05:35:59;;;;;;;0.75;0.75;;;;;;;25.32;33.41;98508.46;1887632;74;28133;-43
2023/04/12 05:38:49;;;;;;;0.60;0.60;;;;;;;25.43;33.32;98501.59;1878907;74;28131;-43
2023/04/12 05:41:37;;;;;;;0.75;0.75;;;;;;;25.44;33.50;98499.95;1901859;74;28080;-44
2023/04/12 05:44:25;;;;;;;1.20;0.60;;;;;;;25.42;33.13;98488.38;1900354;75;28059;-42
2023/04/12 05:47:14;;;;;;;0.72;0.72;;;;;;;25.39;33.02;98487.59;1901620;74;28202;-42
2023/04/12 05:50:05;;;;;;;0.80;0.80;;;;;;;25.40;33.17;98485.92;1882649;74;28094;-43
2023/04/12 05:52:55;;;;;;;1.10;0.65;;;;;;;25.39;33.46;98488.96;1900701;74;28106;-46
2023/04/12 05:55:46;;;;;;;1.60;0.62;;;;;;;25.37;33.86;98494.72;1891558;74;38509;-43
2023/04/12 05:58:35;;;;;;;0.68;0.60;;;;;;;25.37;34.07;98489.22;1900778;75;28108;-43
2023/04/12 06:01:29;;;;;;;0.90;0.50;;;;;;;25.38;34.42;98490.05;1898234;75;28199;-44
2023/04/12 06:04:15;;;;;;;0.55;0.50;;;;;;;25.36;34.52;98489.50;1900853;74;28059;-44
2023/04/12 06:07:04;;;;;;;0.70;0.70;;;;;;;25.38;34.58;98492.80;1897987;74;28071;-44
2023/04/12 06:09:53;;;;;;;0.50;0.50;;;;;;;25.34;34.94;98491.13;1891399;75;28072;-45
2023/04/12 06:12:43;;;;;;;1.50;0.50;;;;;;;25.34;35.03;98488.39;1881593;74;28115;-44
2023/04/12 06:15:32;;;;;;;0.50;0.50;;;;;;;25.34;35.04;98489.77;1880007;74;28143;-43
2023/04/12 06:18:20;;;;;;;0.70;0.50;;;;;;;25.36;34.98;98492.25;1899725;74;28106;-44
2023/04/12 06:21:09;;;;;;;1.15;0.65;;;;;;;25.37;34.99;98499.38;1904496;74;28103;-43
2023/04/12 06:23:58;;;;;;;0.50;0.50;;;;;;;25.36;35.02;98503.25;1907479;74;28176;-43
2023/04/12 06:26:48;;;;;;;0.90;0.47;;;;;;;25.36;35.01;98514.25;1892461;74;28085;-43
2023/04/12 06:29:36;;;;;;;0.57;0.57;;;;;;;25.35;35.07;98513.96;1883861;74;28201;-43
2023/04/12 06:32:25;;;;;;;0.70;0.50;;;;;;;25.34;35.07;98515.08;1901281;75;28150;-43
2023/04/12 06:35:15;;;;;;;1.77;0.55;;;;;;;25.34;35.10;98522.75;1897649;75;28085;-43
2023/04/12 06:38:05;;;;;;;0.40;0.40;;;;;;;25.35;35.03;98514.79;1873122;75;28324;-44
2023/04/12 06:40:53;;;;;;;0.50;0.50;;;;;;;25.35;35.06;98517.54;1888955;75;28146;-44
2023/04/12 06:43:42;;;;;;;0.70;0.50;;;;;;;25.34;35.09;98519.20;1898774;74;28158;-43
2023/04/12 06:46:31;;;;;;;0.80;0.45;;;;;;;25.35;35.08;98526.33;1874251;75;28193;-42
2023/04/12 06:49:19;;;;;;;0.62;0.40;;;;;;;25.34;35.11;98521.95;1860333;75;28166;-43
2023/04/12 06:52:07;;;;;;;0.68;0.50;;;;;;;25.34;35.11;98515.08;1876800;75;28197;-42
2023/04/12 06:54:56;;;;;;;0.77;0.60;;;;;;;25.33;35.13;98525.25;1896712;74;28091;-42
2023/04/12 06:57:45;;;;;;;0.88;0.57;;;;;;;25.31;35.16;98523.87;1873508;75;28169;-42
2023/04/12 07:00:33;;;;;;;0.40;0.40;;;;;;;25.31;35.14;98521.95;1871707;75;28193;-42
2023/04/12 07:03:23;;;;;;;0.47;0.40;;;;;;;25.30;35.15;98532.66;1854001;76;28116;-45
2023/04/12 07:06:11;;;;;;;1.20;0.50;;;;;;;25.29;35.16;98526.91;1863947;76;28123;-46
2023/04/12 07:09:00;;;;;;;0.42;0.42;;;;;;;25.27;35.18;98522.78;1850429;76;28140;-44
2023/04/12 07:11:48;;;;;;;1.50;1.00;;;;;;;25.29;35.17;98513.70;1862071;76;28178;-43
2023/04/12 07:14:36;;;;;;;0.47;0.47;;;;;;;25.29;35.18;98521.95;1866619;76;28178;-43
2023/04/12 07:17:28;;;;;;;0.80;0.57;;;;;;;25.26;35.20;98513.70;1841198;76;28300;-43
2023/04/12 07:20:16;;;;;;;0.50;0.50;;;;;;;25.27;35.20;98499.41;1864316;76;28059;-44
2023/04/12 07:23:05;;;;;;;0.70;0.53;;;;;;;25.26;35.19;98497.20;1851845;76;28283;-43
2023/04/12 07:25:53;;;;;;;1.00;0.50;;;;;;;25.28;35.19;98499.13;1850263;76;28184;-43
2023/04/12 07:28:41;;;;;;;1.22;0.40;;;;;;;25.28;35.18;98498.30;1861663;76;28248;-44
2023/04/12 07:31:30;;;;;;;0.35;0.35;;;;;;;25.25;35.23;98496.12;1870195;76;28097;-46
2023/04/12 07:34:18;;;;;;;0.40;0.40;;;;;;;25.26;35.14;98499.13;1846530;76;28238;-45
2023/04/12 07:37:07;;;;;;;0.40;0.40;;;;;;;25.26;35.20;98503.25;1854590;76;28151;-43
2023/04/12 07:39:55;;;;;;;0.57;0.50;;;;;;;25.26;35.21;98489.50;1857835;76;28103;-42
2023/04/12 07:42:44;;;;;;;0.35;0.35;;;;;;;25.24;35.18;98485.67;1857912;76;28615;-45
2023/04/12 07:45:32;;;;;;;1.80;0.40;;;;;;;25.26;35.15;98486.21;1858341;76;28111;-43
2023/04/12 07:48:20;;;;;;;0.45;0.45;;;;;;;25.26;35.15;98484.01;1853061;76;28149;-43
2023/04/12 07:51:09;;;;;;;0.50;0.50;;;;;;;25.24;35.16;98484.30;1873451;76;28209;-43
2023/04/12 07:53:57;;;;;;;0.60;0.60;;;;;;;25.26;35.16;98492.25;1847724;76;28306;-43
2023/04/12 07:57:03;;;;;;;0.43;0.43;;;;;;;25.23;35.17;98496.38;1851913;76;28129;-44
2023/04/12 07:59:51;;;;;;;0.50;0.50;;;;;;;25.24;35.13;98493.09;1857535;76;28225;-44
2023/04/12 08:02:39;;;;;;;0.50;0.50;;;;;;;25.23;35.20;98492.80;1854077;75;28236;-45
2023/04/12 08:05:28;;;;;;;0.47;0.47;;;;;;;25.23;35.24;98496.92;1878945;74;28226;-44
2023/04/12 08:08:16;;;;;;;1.40;0.47;;;;;;;25.22;35.22;98495.29;1880172;75;28099;-44
2023/04/12 08:11:05;;;;;;;0.50;0.40;;;;;;;25.24;35.27;98487.59;1890261;75;28223;-46
2023/04/12 08:13:53;;;;;;;0.72;0.55;;;;;;;25.23;35.23;98488.67;1878941;74;28191;-46
2023/04/12 08:16:41;;;;;;;0.50;0.50;;;;;;;25.22;35.19;98500.78;1890097;75;28133;-45
2023/04/12 08:19:30;;;;;;;0.53;0.50;;;;;;;25.24;35.19;98506.83;1874615;75;28672;-43
2023/04/12 08:22:18;;;;;;;2.80;0.60;;;;;;;25.24;35.19;98516.45;1878610;74;28873;-44
2023/04/12 08:25:08;;;;;;;1.00;0.40;;;;;;;25.23;35.22;98516.99;1885434;74;28168;-46
2023/04/12 08:27:56;;;;;;;0.30;0.30;;;;;;;25.22;35.23;98506.28;1883665;74;28118;-42
2023/04/12 08:30:45;;;;;;;0.60;0.60;;;;;;;25.23;35.31;98488.67;1902537;74;28091;-43
2023/04/12 08:33:33;;;;;;;0.40;0.40;;;;;;;25.23;35.31;98488.67;1898745;74;28205;-44
2023/04/12 08:36:21;;;;;;;0.50;0.50;;;;;;;25.22;35.24;98500.78;1880754;74;28257;-44
2023/04/12 08:39:10;;;;;;;0.50;0.50;;;;;;;25.22;35.26;98502.16;1890026;74;28108;-42
2023/04/12 08:42:01;;;;;;;0.50;0.50;;;;;;;25.24;35.27;98506.83;1902388;74;28060;-44
2023/04/12 08:44:52;;;;;;;0.60;0.60;;;;;;;25.24;35.22;98504.91;1885724;74;28153;-43
2023/04/12 08:47:43;;;;;;;0.50;0.50;;;;;;;25.24;35.19;98509.58;1902376;74;28185;-44
2023/04/12 08:50:32;;;;;;;0.62;0.62;;;;;;;25.23;35.22;98515.62;1902380;74;28135;-46
2023/04/12 08:53:22;;;;;;;0.42;0.42;;;;;;;25.21;35.23;98504.08;1889311;74;27756;-46
2023/04/12 08:56:12;;;;;;;0.50;0.50;;;;;;;25.22;35.19;98496.12;1899989;74;28170;-45
2023/04/12 08:59:02;;;;;;;0.45;0.45;;;;;;;25.23;35.22;98485.38;1903017;74;28059;-43
2023/04/12 09:01:51;;;;;;;0.53;0.53;;;;;;;25.24;35.20;98481.55;1886445;74;28198;-43
2023/04/12 09:04:48;;;;;;;0.80;0.30;;;;;;;25.24;35.16;98473.84;1870125;75;28080;-44
2023/04/12 09:07:37;;;;;;;1.30;0.60;;;;;;;25.23;35.16;98471.64;1872839;75;28125;-44
2023/04/12 09:10:38;;;;;;;0.42;0.42;;;;;;;25.22;35.18;98476.87;1885120;74;28330;-43
2023/04/12 09:13:36;;;;;;;0.42;0.42;;;;;;;25.21;35.14;98476.59;1898849;74;28194;-43
2023/04/12 09:16:40;;;;;;;0.55;0.55;;;;;;;25.20;35.18;98461.22;1894800;74;28155;-45
2023/04/12 09:19:34;;;;;;;1.00;0.60;;;;;;;25.21;35.19;98459.27;1890927;75;31055;-43
2023/04/12 09:22:37;;;;;;;0.40;0.40;;;;;;;25.20;35.18;98461.22;1882376;74;28142;-43
2023/04/12 09:25:48;;;;;;;0.70;0.50;;;;;;;25.20;35.27;98456.27;1861155;75;28099;-42
2023/04/12 09:28:35;;;;;;;0.40;0.40;;;;;;;25.20;35.27;98456.27;1891755;75;28181;-43
2023/04/12 09:31:24;;;;;;;0.65;0.65;;;;;;;25.17;35.21;98456.27;1893275;74;28077;-44
2023/04/12 09:34:12;;;;;;;0.90;0.50;;;;;;;25.19;35.14;98435.36;1873414;75;28137;-44
2023/04/12 09:37:02;;;;;;;0.40;0.40;;;;;;;25.19;35.16;98440.32;1901502;74;28662;-43
2023/04/12 09:40:03;;;;;;;0.90;0.50;;;;;;;25.23;35.12;98436.45;1879223;74;28192;-44
2023/04/12 09:42:55;;;;;;;2.00;0.55;;;;;;;25.21;35.10;98433.98;1885527;74;28134;-44
2023/04/12 09:45:43;;;;;;;0.60;0.60;;;;;;;25.20;35.10;98420.53;1876424;74;27728;-43
2023/04/12 09:48:31;;;;;;;0.50;0.50;;;;;;;25.21;35.10;98418.04;1885885;74;28058;-42
2023/04/12 09:51:32;;;;;;;1.00;0.70;;;;;;;25.21;35.09;98412.00;1899016;75;28103;-43
2023/04/12 09:54:21;;;;;;;0.62;0.62;;;;;;;25.22;35.07;98405.42;1886936;74;28110;-47
2023/04/12 09:57:11;;;;;;;0.60;0.60;;;;;;;25.20;35.03;98402.67;1891839;74;28096;-43
2023/04/12 10:00:02;;;;;;;0.90;0.60;;;;;;;25.20;35.05;98398.00;1897006;74;28067;-46
2023/04/12 10:02:55;;;;;;;0.70;0.70;;;;;;;25.22;35.00;98394.97;1903814;74;28107;-44
2023/04/12 10:05:43;;;;;;;0.60;0.60;;;;;;;25.21;35.03;98391.39;1882566;75;28141;-46
2023/04/12 10:08:32;;;;;;;0.55;0.55;;;;;;;25.22;34.99;98391.67;1858215;76;28144;-42
2023/04/12 10:11:21;;;;;;;0.70;0.70;;;;;;;25.21;35.01;98389.19;1868297;76;28240;-45
2023/04/12 10:14:11;;;;;;;1.80;0.80;;;;;;;25.23;34.97;98385.60;1863084;76;28214;-43
2023/04/12 10:17:01;;;;;;;0.68;0.68;;;;;;;25.23;34.96;98377.36;1844200;76;28148;-42
2023/04/12 10:19:52;;;;;;;0.60;0.60;;;;;;;25.24;34.92;98374.34;1857447;75;28085;-42
2023/04/12 10:22:42;;;;;;;1.80;1.25;;;;;;;25.24;34.91;98373.52;1851925;76;28259;-44
2023/04/12 10:25:31;;;;;;;1.60;0.90;;;;;;;25.24;34.91;98376.27;1846572;76;28131;-44
2023/04/12 10:28:23;;;;;;;0.75;0.75;;;;;;;25.23;34.89;98368.56;1857021;75;28089;-43
2023/04/12 10:31:31;;;;;;;0.90;0.80;;;;;;;25.24;34.87;98359.77;1844568;76;28271;-43
2023/04/12 10:34:26;;;;;;;0.60;0.60;;;;;;;25.20;34.91;98360.90;1845639;76;28342;-44
2023/04/12 10:37:14;;;;;;;0.88;0.88;;;;;;;25.19;34.92;98361.16;1860811;76;28172;-42
2023/04/12 10:40:03;;;;;;;0.90;0.90;;;;;;;25.20;34.92;98360.07;1867489;75;28113;-42
2023/04/12 10:42:55;;;;;;;0.68;0.68;;;;;;;25.20;34.93;98350.45;1844762;76;28113;-44
2023/04/12 10:45:44;;;;;;;0.70;0.70;;;;;;;25.20;34.86;98344.41;1842971;75;28103;-44
2023/04/12 10:48:38;;;;;;;0.82;0.82;;;;;;;25.21;34.91;98338.34;1853175;76;28117;-43
2023/04/12 10:51:27;;;;;;;0.95;0.95;;;;;;;25.21;34.87;98341.09;1865957;75;28099;-43
2023/04/12 10:54:20;;;;;;;1.30;1.02;;;;;;;25.23;34.86;98341.63;1856036;75;28173;-42
2023/04/12 10:57:11;;;;;;;0.90;0.90;;;;;;;25.22;34.86;98340.00;1886646;75;28146;-44
2023/04/12 11:00:02;;;;;;;0.80;0.80;;;;;;;25.23;34.81;98338.33;1855775;75;28140;-43
2023/04/12 11:03:10;;;;;;;0.80;0.80;;;;;;;25.24;34.79;98337.78;1855630;76;28133;-43
2023/04/12 11:06:04;;;;;;;0.85;0.85;;;;;;;25.25;34.78;98338.87;1845011;75;28316;-44
2023/04/12 11:09:31;;;;;;;0.93;0.93;;;;;;;25.21;34.83;98326.80;1856279;75;28089;-45
2023/04/12 11:12:21;;;;;;;1.20;0.85;;;;;;;25.20;34.85;98308.68;1857252;75;28118;-42
2023/04/12 11:15:12;;;;;;;0.70;0.70;;;;;;;25.19;34.86;98308.94;1857408;75;34056;-42
2023/04/12 11:18:10;;;;;;;0.95;0.95;;;;;;;25.21;34.81;98308.11;1857743;75;28139;-42
2023/04/12 11:20:59;;;;;;;1.00;1.00;;;;;;;25.22;34.79;98302.34;1799228;79;28417;-47
2023/04/12 11:23:48;;;;;;;1.32;1.02;;;;;;;25.26;34.76;98303.42;1824667;78;28287;-44
2023/04/12 11:26:38;;;;;;;1.00;1.00;;;;;;;25.26;34.72;98295.17;1824633;78;28239;-43
2023/04/12 11:29:27;;;;;;;1.02;0.95;;;;;;;25.28;34.71;98294.89;1824789;78;28206;-48
2023/04/12 11:32:16;;;;;;;1.10;0.93;;;;;;;25.27;34.74;98285.84;1824730;78;28184;-42
2023/04/12 11:35:05;;;;;;;0.88;0.88;;;;;;;25.27;34.71;98289.14;1828062;78;28238;-43
2023/04/12 11:37:57;;;;;;;0.90;0.90;;;;;;;25.28;34.71;98283.89;1809349;78;28280;-42
2023/04/12 11:40:49;;;;;;;1.80;1.30;;;;;;;25.28;34.72;98286.09;1829426;78;28246;-42
2023/04/12 11:43:38;;;;;;;0.90;0.90;;;;;;;25.29;34.69;98284.17;1815073;78;28287;-45
2023/04/12 11:46:27;;;;;;;1.10;1.10;;;;;;;25.26;34.70;98280.61;1837098;76;28119;-45
2023/04/12 11:49:16;;;;;;;1.30;1.20;;;;;;;25.30;34.62;98277.55;1866371;76;28287;-43
2023/04/12 11:52:05;;;;;;;1.00;1.00;;;;;;;25.29;34.64;98274.55;1854955;76;28213;-45
2023/04/12 11:54:55;;;;;;;1.00;1.00;;;;;;;25.31;34.60;98262.72;1853969;76;28096;-43
2023/04/12 11:57:43;;;;;;;1.10;1.10;;;;;;;25.32;34.59;98268.50;1874054;76;28223;-43
2023/04/12 12:00:32;;;;;;;1.03;1.03;;;;;;;25.29;34.62;98257.52;1842592;76;28292;-42
2023/04/12 12:03:21;;;;;;;1.20;1.20;;;;;;;25.30;34.60;98254.19;1888435;75;28211;-43
2023/04/12 12:06:11;;;;;;;1.15;1.15;;;;;;;25.31;34.60;98245.69;1855887;74;28134;-44
2023/04/12 12:09:00;;;;;;;1.00;1.00;;;;;;;25.29;34.59;98231.41;1852655;76;30091;-43
2023/04/12 12:11:50;;;;;;;1.10;1.00;;;;;;;25.30;34.60;98224.78;1850940;76;28163;-43
2023/04/12 12:14:39;;;;;;;1.00;0.90;;;;;;;25.32;34.60;98227.27;1859276;76;28131;-45
2023/04/12 12:17:28;;;;;;;1.00;1.00;;;;;;;25.29;34.60;98223.70;1854039;76;28104;-42
2023/04/12 12:20:23;;;;;;;0.93;0.93;;;;;;;25.30;34.58;98218.46;1845837;76;28219;-41
2023/04/12 12:23:11;;;;;;;1.40;1.30;;;;;;;25.32;34.56;98210.78;1842585;76;31186;-44
2023/04/12 12:26:05;;;;;;;1.47;1.10;;;;;;;25.32;34.56;98214.90;1874019;76;28161;-42
2023/04/12 12:28:56;;;;;;;1.00;1.00;;;;;;;25.30;34.58;98211.05;1854339;76;28133;-42
2023/04/12 12:31:47;;;;;;;1.30;1.20;;;;;;;25.31;34.56;98215.45;1852077;76;28113;-44
2023/04/12 12:34:36;;;;;;;1.20;1.10;;;;;;;25.30;34.57;98217.09;1852096;76;28203;-43
2023/04/12 12:37:27;;;;;;;1.90;1.10;;;;;;;25.31;34.55;98204.45;1856117;76;28163;-47
2023/04/12 12:40:16;;;;;;;1.20;1.10;;;;;;;25.31;34.56;98200.88;1854032;76;28105;-42
2023/04/12 12:43:08;;;;;;;0.85;0.85;;;;;;;25.29;34.55;98193.47;1845891;76;28388;-42
2023/04/12 12:45:57;;;;;;;1.20;1.10;;;;;;;25.31;34.55;98191.25;1841458;77;28101;-46
2023/04/12 12:48:48;;;;;;;1.00;1.00;;;;;;;25.29;34.57;98190.17;1858451;76;28106;-43
2023/04/12 12:51:36;;;;;;;1.02;1.02;;;;;;;25.29;34.57;98182.47;1854066;76;28113;-43
2023/04/12 12:54:24;;;;;;;1.02;1.02;;;;;;;25.28;34.58;98177.52;1852527;76;28106;-42
2023/04/12 12:57:12;;;;;;;1.27;1.20;;;;;;;25.30;34.56;98173.11;1852421;76;28133;-42
2023/04/12 13:00:00;;;;;;;1.12;1.02;;;;;;;25.30;34.57;98173.11;1857737;76;28538;-43
2023/04/12 13:02:53;;;;;;;1.43;1.17;;;;;;;25.29;34.54;98162.69;1852672;76;28097;-43
2023/04/12 13:05:42;;;;;;;1.20;1.20;;;;;;;25.31;34.49;98152.77;1851873;76;28134;-43
2023/04/12 13:08:36;;;;;;;1.00;1.00;;;;;;;25.29;34.49;98155.81;1845379;75;28203;-43
2023/04/12 13:11:20;;;;;;;1.10;1.10;;;;;;;25.29;34.51;98148.12;1875091;76;28211;-42
2023/04/12 13:14:09;;;;;;;1.07;1.07;;;;;;;25.27;34.53;98142.91;1859427;76;28188;-45
2023/04/12 13:16:57;;;;;;;1.07;0.97;;;;;;;25.28;34.52;98139.59;1861216;76;28251;-44
2023/04/12 13:19:46;;;;;;;1.00;1.00;;;;;;;25.27;34.54;98128.34;1859552;76;28226;-44
2023/04/12 13:22:35;;;;;;;1.00;1.00;;;;;;;25.27;34.52;98119.55;1858132;76;28133;-43
2023/04/12 13:25:24;;;;;;;1.05;1.05;;;;;;;25.27;34.52;98111.30;1845002;76;28223;-43